Time;durP1;ratioP1;P1;durP2;ratioP2;P2;SDS_P1;SDS_P2;PMS_P1;PMS_P2;Temp;Humidity;BMP_temperature;BMP_pressure;BME280_temperature;BME280_humidity;BME280_pressure;Samples;Min_cycle;Max_cycle;Signal;HPM_P1;HPM_P2
2022/04/08 00:02:13;;;;;;;;;0.00;0.00;;;;;15.91;53.09;99795.66;5071446;28;8800;-67
2022/04/08 00:04:39;;;;;;;;;0.00;0.00;;;;;15.92;52.93;99808.81;5071015;28;8897;-68
2022/04/08 00:07:04;;;;;;;;;0.33;0.00;;;;;15.89;52.88;99808.88;5071287;28;9440;-69
2022/04/08 00:09:29;;;;;;;;;0.33;0.33;;;;;15.89;52.88;99811.50;5071113;28;8769;-68
2022/04/08 00:11:57;;;;;;;;;0.00;0.00;;;;;15.89;52.97;99797.47;5070490;28;8766;-69
2022/04/08 00:14:23;;;;;;;;;0.67;0.67;;;;;15.89;53.06;99808.88;5051408;28;8803;-68
2022/04/08 00:16:48;;;;;;;;;0.00;0.00;;;;;15.89;52.83;99811.50;5050652;28;9097;-68
2022/04/08 00:19:14;;;;;;;;;0.67;0.67;;;;;15.87;53.09;99818.53;5050725;28;8792;-68
2022/04/08 00:21:40;;;;;;;;;0.00;0.00;;;;;15.90;53.12;99822.88;5050990;28;9570;-68
2022/04/08 00:24:08;;;;;;;;;0.00;0.00;;;;;15.88;53.15;99822.03;5050253;28;8795;-68
2022/04/08 00:26:33;;;;;;;;;0.00;0.00;;;;;15.89;53.14;99816.75;5051198;28;8779;-69
2022/04/08 00:28:59;;;;;;;;;0.00;0.00;;;;;15.90;52.85;99825.50;5050703;28;9873;-68
2022/04/08 00:31:24;;;;;;;;;0.00;0.00;;;;;15.90;52.90;99823.75;5050344;28;8776;-68
2022/04/08 00:33:49;;;;;;;;;1.67;0.00;;;;;15.89;53.19;99827.28;5050781;28;8784;-68
2022/04/08 00:36:15;;;;;;;;;0.00;0.00;;;;;15.86;53.06;99823.81;5050797;28;8807;-68
2022/04/08 00:38:40;;;;;;;;;1.00;0.00;;;;;15.87;53.01;99833.44;5050233;28;9520;-68
2022/04/08 00:41:05;;;;;;;;;0.00;0.00;;;;;15.87;52.97;99830.81;5050341;28;8802;-68
2022/04/08 00:43:36;;;;;;;;;1.00;0.00;;;;;15.86;53.09;99843.09;5050840;28;8772;-68
2022/04/08 00:46:09;;;;;;;;;0.00;0.00;;;;;15.88;52.92;99845.72;5049933;28;8802;-68
2022/04/08 00:48:36;;;;;;;;;0.00;0.00;;;;;15.87;52.91;99855.38;5050809;28;9349;-68
2022/04/08 00:51:04;;;;;;;;;0.00;0.00;;;;;15.85;52.94;99853.69;5050190;28;9905;-68
2022/04/08 00:53:30;;;;;;;;;0.00;0.00;;;;;15.84;52.83;99860.69;5048895;28;9184;-68
2022/04/08 00:55:56;;;;;;;;;0.00;0.00;;;;;15.87;52.87;99867.66;5050253;28;9024;-68
2022/04/08 00:58:23;;;;;;;;;0.00;0.00;;;;;15.85;52.69;99865.09;5050522;28;9107;-68
2022/04/08 01:00:48;;;;;;;;;0.00;0.00;;;;;15.87;52.91;99865.03;5049471;28;9184;-69
2022/04/08 01:03:13;;;;;;;;;1.00;0.00;;;;;15.85;52.88;99865.09;5050372;28;9182;-69
2022/04/08 01:05:39;;;;;;;;;1.00;0.00;;;;;15.84;52.74;99865.97;5050111;28;8792;-69
2022/04/08 01:08:11;;;;;;;;;0.00;0.00;;;;;15.84;52.68;99879.13;5063394;28;9511;-68
2022/04/08 01:10:38;;;;;;;;;0.00;0.00;;;;;15.84;52.75;99876.50;5070597;28;8759;-68
2022/04/08 01:13:03;;;;;;;;;0.00;0.00;;;;;15.84;52.78;99878.25;5069914;28;9204;-68
2022/04/08 01:15:29;;;;;;;;;0.00;0.00;;;;;15.83;52.81;99877.38;5060914;28;9196;-68
2022/04/08 01:17:56;;;;;;;;;0.00;0.00;;;;;15.86;52.81;99873.81;5050182;28;8800;-69
2022/04/08 01:20:22;;;;;;;;;0.00;0.00;;;;;15.85;52.56;99874.72;5049830;28;8788;-68
2022/04/08 01:22:47;;;;;;;;;0.00;0.00;;;;;15.86;52.65;99874.69;5049987;28;9948;-68
2022/04/08 01:25:13;;;;;;;;;0.00;0.00;;;;;15.85;52.62;99880.00;5050216;28;9497;-69
2022/04/08 01:27:39;;;;;;;;;0.00;0.00;;;;;15.83;52.71;99887.91;5049233;28;8855;-69
2022/04/08 01:30:07;;;;;;;;;0.00;0.00;;;;;15.83;52.52;99873.88;5049706;28;9504;-69
2022/04/08 01:32:33;;;;;;;;;0.00;0.00;;;;;15.82;52.42;99874.78;5052567;28;9175;-68
2022/04/08 01:34:58;;;;;;;;;1.00;0.00;;;;;15.84;52.80;99881.75;5049491;28;9943;-68
2022/04/08 01:37:24;;;;;;;;;0.00;0.00;;;;;15.85;52.79;99882.63;5050071;28;8828;-69
2022/04/08 01:39:49;;;;;;;;;0.00;0.00;;;;;15.83;52.75;99893.16;5049813;28;8800;-69
2022/04/08 01:42:16;;;;;;;;;1.67;0.00;;;;;15.84;52.53;99894.03;5049026;28;8784;-69
2022/04/08 01:44:41;;;;;;;;;0.00;0.00;;;;;15.84;52.63;99910.72;5050082;28;8775;-68
2022/04/08 01:47:07;;;;;;;;;0.00;0.00;;;;;15.86;52.54;99927.34;5051248;28;9165;-67
2022/04/08 01:49:32;;;;;;;;;0.00;0.00;;;;;15.85;52.71;99938.78;5049315;28;8800;-67
2022/04/08 01:51:58;;;;;;;;;0.00;0.00;;;;;15.83;52.66;99911.59;5049752;28;8800;-68
2022/04/08 01:54:23;;;;;;;;;0.00;0.00;;;;;15.80;52.49;99916.91;5049767;28;8901;-68
2022/04/08 01:56:49;;;;;;;;;0.00;0.00;;;;;15.81;52.70;99902.88;5048655;28;8840;-68
2022/04/08 01:59:15;;;;;;;;;1.67;0.00;;;;;15.81;52.45;99908.13;5049889;28;8796;-68
2022/04/08 02:01:40;;;;;;;;;1.00;0.33;;;;;15.79;52.34;99914.28;5049551;28;8789;-68
2022/04/08 02:04:05;;;;;;;;;0.00;0.00;;;;;15.80;52.47;99916.03;5048874;28;8780;-68
2022/04/08 02:06:36;;;;;;;;;0.00;0.00;;;;;15.79;52.42;99922.19;5049117;28;9547;-68
2022/04/08 02:09:02;;;;;;;;;0.00;0.00;;;;;15.80;52.52;99916.03;5053615;28;8774;-68
2022/04/08 02:11:28;;;;;;;;;0.00;0.00;;;;;15.81;52.44;99923.91;5052798;28;9079;-68
2022/04/08 02:13:53;;;;;;;;;0.67;0.00;;;;;15.81;52.62;99918.66;5052896;28;11539;-68
2022/04/08 02:16:18;;;;;;;;;0.67;0.00;;;;;15.81;52.60;99923.91;5068546;28;8831;-68
2022/04/08 02:18:44;;;;;;;;;0.00;0.00;;;;;15.80;52.41;99913.41;5072208;28;8775;-68
2022/04/08 02:21:10;;;;;;;;;0.00;0.00;;;;;15.78;52.57;99910.78;5073538;28;8775;-68
2022/04/08 02:23:36;;;;;;;;;0.00;0.00;;;;;15.79;52.40;99906.38;5073381;28;8771;-68
2022/04/08 02:26:06;;;;;;;;;0.33;0.33;;;;;15.80;52.48;99910.78;5072587;28;9162;-68
2022/04/08 02:28:34;;;;;;;;;0.00;0.00;;;;;15.75;52.67;99899.44;5073457;28;8998;-68
2022/04/08 02:31:00;;;;;;;;;0.00;0.00;;;;;15.79;52.48;99901.13;5071904;28;9182;-68
2022/04/08 02:33:25;;;;;;;;;1.00;0.00;;;;;15.79;52.56;99901.13;5073261;28;9095;-69
2022/04/08 02:35:50;;;;;;;;;0.00;0.00;;;;;15.75;52.39;99897.66;5072756;28;8816;-68
2022/04/08 02:38:15;;;;;;;;;0.00;0.00;;;;;15.78;52.32;99900.25;5072491;28;8828;-69
2022/04/08 02:40:41;;;;;;;;;0.00;0.00;;;;;15.77;52.29;99897.66;5072836;28;8861;-69
2022/04/08 02:43:06;;;;;;;;;0.00;0.00;;;;;15.76;52.44;99903.81;5072626;28;8764;-69
2022/04/08 02:45:31;;;;;;;;;0.00;0.00;;;;;15.75;52.33;99900.31;5072424;28;8760;-69
2022/04/08 02:47:57;;;;;;;;;0.00;0.00;;;;;15.75;52.42;99902.94;5072775;28;8771;-69
2022/04/08 02:50:22;;;;;;;;;1.00;0.00;;;;;15.76;52.05;99898.53;5073006;28;8807;-69
2022/04/08 02:52:47;;;;;;;;;0.00;0.00;;;;;15.77;52.00;99905.56;5071768;28;8865;-69
2022/04/08 02:55:12;;;;;;;;;0.00;0.00;;;;;15.77;52.12;99914.31;5072888;28;8787;-69
2022/04/08 02:57:44;;;;;;;;;1.00;0.00;;;;;15.76;52.12;99914.34;5072711;28;8827;-69
2022/04/08 03:00:11;;;;;;;;;0.00;0.00;;;;;15.74;52.23;99919.63;5071896;28;8772;-69
2022/04/08 03:02:37;;;;;;;;;1.00;0.00;;;;;15.75;52.23;99918.72;5072664;28;9082;-69
2022/04/08 03:05:06;;;;;;;;;0.00;0.00;;;;;15.76;52.27;99914.34;5072218;28;9125;-68
2022/04/08 03:07:31;;;;;;;;;1.00;1.00;;;;;15.74;52.33;99924.91;5058107;28;8818;-68
2022/04/08 03:09:57;;;;;;;;;0.00;0.00;;;;;15.75;52.15;99923.13;5052337;28;9221;-69
2022/04/08 03:12:22;;;;;;;;;1.00;0.00;;;;;15.75;52.10;99925.75;5055301;28;8852;-69
2022/04/08 03:14:47;;;;;;;;;0.00;0.00;;;;;15.72;52.20;99931.94;5071467;28;8839;-69
2022/04/08 03:17:13;;;;;;;;;0.00;0.00;;;;;15.73;51.93;99938.94;5071376;28;8892;-69
2022/04/08 03:19:38;;;;;;;;;0.00;0.00;;;;;15.73;51.98;99938.06;5072279;28;8842;-69
2022/04/08 03:22:03;;;;;;;;;0.00;0.00;;;;;15.73;52.26;99949.47;5071287;28;8841;-69
2022/04/08 03:24:30;;;;;;;;;0.00;0.00;;;;;15.75;52.03;99946.81;5072206;28;8792;-69
2022/04/08 03:26:56;;;;;;;;;1.33;0.33;;;;;15.73;52.10;99951.22;5070258;28;8940;-69
2022/04/08 03:29:21;;;;;;;;;0.00;0.00;;;;;15.73;52.04;99945.97;5072349;28;9118;-69
2022/04/08 03:31:46;;;;;;;;;0.00;0.00;;;;;15.70;52.12;99952.16;5071869;28;8903;-69
2022/04/08 03:34:11;;;;;;;;;0.00;0.00;;;;;15.72;52.01;99953.00;5071140;28;8802;-69
2022/04/08 03:36:37;;;;;;;;;0.00;0.00;;;;;15.72;51.90;99950.34;5072174;28;8787;-69
2022/04/08 03:39:02;;;;;;;;;0.00;0.00;;;;;15.72;51.95;99952.13;5071860;28;8941;-69
2022/04/08 03:41:28;;;;;;;;;0.00;0.00;;;;;15.72;52.17;99946.84;5071676;28;8806;-69
2022/04/08 03:43:53;;;;;;;;;0.67;0.00;;;;;15.71;51.97;99947.75;5071590;28;8906;-69
2022/04/08 03:46:18;;;;;;;;;0.00;0.00;;;;;15.71;52.10;99956.50;5071910;28;8787;-68
2022/04/08 03:48:43;;;;;;;;;0.00;0.00;;;;;15.69;51.90;99949.53;5070880;28;8760;-69
2022/04/08 03:51:09;;;;;;;;;0.00;0.00;;;;;15.72;51.92;99946.84;5071634;28;8780;-68
2022/04/08 03:53:37;;;;;;;;;0.67;0.67;;;;;15.68;51.82;99948.66;5071791;28;8764;-68
2022/04/08 03:56:02;;;;;;;;;0.00;0.00;;;;;15.73;52.23;99943.34;5070788;28;8763;-68
2022/04/08 03:58:29;;;;;;;;;0.00;0.00;;;;;15.69;51.90;99939.00;5071511;28;9271;-68
2022/04/08 04:00:54;;;;;;;;;1.25;1.25;;;;;15.68;51.99;99937.25;5071478;28;8759;-68
2022/04/08 04:03:19;;;;;;;;;0.00;0.00;;;;;15.69;51.98;99936.38;5071026;28;9516;-68
2022/04/08 04:05:45;;;;;;;;;0.00;0.00;;;;;15.68;51.88;99930.22;5071457;28;8775;-68
2022/04/08 04:08:18;;;;;;;;;0.00;0.00;;;;;15.69;51.79;99925.84;5051952;28;8797;-68
2022/04/08 04:10:43;;;;;;;;;0.00;0.00;;;;;15.70;51.69;99927.59;5050499;28;8784;-68
2022/04/08 04:13:09;;;;;;;;;0.00;0.00;;;;;15.70;51.96;99927.59;5061364;28;8786;-68
2022/04/08 04:15:34;;;;;;;;;0.00;0.00;;;;;15.68;51.86;99924.09;5071317;28;8796;-68
2022/04/08 04:17:59;;;;;;;;;0.00;0.00;;;;;15.70;51.55;99931.09;5070267;28;9681;-68
2022/04/08 04:20:24;;;;;;;;;0.00;0.00;;;;;15.68;51.82;99929.34;5071082;28;8825;-68
2022/04/08 04:22:50;;;;;;;;;0.00;0.00;;;;;15.70;52.09;99933.72;5071122;28;8790;-69
2022/04/08 04:25:16;;;;;;;;;0.00;0.00;;;;;15.67;52.38;99933.75;5070329;28;8783;-69
2022/04/08 04:27:41;;;;;;;;;0.00;0.00;;;;;15.69;51.58;99939.00;5070906;28;11398;-69
2022/04/08 04:30:06;;;;;;;;;1.00;1.00;;;;;15.71;51.79;99934.59;5070904;28;8817;-69
2022/04/08 04:32:32;;;;;;;;;0.00;0.00;;;;;15.68;51.69;99935.50;5072546;28;8786;-68
2022/04/08 04:34:57;;;;;;;;;0.00;0.00;;;;;15.64;51.76;99939.06;5070929;28;8828;-68
2022/04/08 04:37:22;;;;;;;;;0.00;0.00;;;;;15.68;51.57;99938.13;5070607;28;9006;-68
2022/04/08 04:39:48;;;;;;;;;0.00;0.00;;;;;15.64;51.63;99941.69;5070430;28;8805;-68
2022/04/08 04:42:13;;;;;;;;;0.33;0.00;;;;;15.65;51.66;99939.94;5070533;28;8911;-68
2022/04/08 04:44:38;;;;;;;;;0.00;0.00;;;;;15.64;51.59;99935.56;5068687;28;9517;-69
2022/04/08 04:47:04;;;;;;;;;1.00;1.00;;;;;15.67;51.50;99931.13;5073644;28;8871;-69
2022/04/08 04:49:29;;;;;;;;;0.00;0.00;;;;;15.64;51.60;99933.78;5071192;28;8878;-68
2022/04/08 04:51:54;;;;;;;;;0.00;0.00;;;;;15.64;51.78;99940.81;5070093;28;8785;-68
2022/04/08 04:54:20;;;;;;;;;0.00;0.00;;;;;15.63;51.52;99939.97;5070325;28;8781;-69
2022/04/08 04:56:45;;;;;;;;;0.00;0.00;;;;;15.64;51.44;99944.31;5070046;28;8798;-69
2022/04/08 04:59:11;;;;;;;;;0.00;0.00;;;;;15.65;51.74;99934.66;5069554;28;8782;-69
2022/04/08 05:01:36;;;;;;;;;0.00;0.00;;;;;15.64;51.43;99941.69;5070628;28;8888;-70
2022/04/08 05:04:01;;;;;;;;;0.00;0.00;;;;;15.63;51.59;99937.34;5069894;28;8875;-68
2022/04/08 05:06:31;;;;;;;;;0.00;0.00;;;;;15.60;51.62;99932.09;5064982;28;8814;-68
2022/04/08 05:08:56;;;;;;;;;0.00;0.00;;;;;15.62;51.54;99929.47;5069834;28;8764;-69
2022/04/08 05:11:24;;;;;;;;;0.00;0.00;;;;;15.63;51.40;99929.44;5070083;28;8995;-69
2022/04/08 05:13:50;;;;;;;;;0.00;0.00;;;;;15.63;51.51;99934.72;5069452;28;8771;-69
2022/04/08 05:16:15;;;;;;;;;0.00;0.00;;;;;15.63;51.48;99920.69;5069823;28;9115;-68
2022/04/08 05:18:40;;;;;;;;;0.00;0.00;;;;;15.62;51.51;99924.19;5070164;28;8767;-68
2022/04/08 05:21:06;;;;;;;;;0.00;0.00;;;;;15.61;51.41;99935.59;5069193;28;8787;-69
2022/04/08 05:23:32;;;;;;;;;0.00;0.00;;;;;15.59;51.68;99924.25;5070028;28;8776;-68
2022/04/08 05:25:57;;;;;;;;;0.00;0.00;;;;;15.62;51.45;99924.19;5069758;28;8766;-68
2022/04/08 05:28:22;;;;;;;;;0.00;0.00;;;;;15.61;51.46;99927.72;5069800;28;9006;-68
2022/04/08 05:30:48;;;;;;;;;0.00;0.00;;;;;15.64;51.42;99918.00;5069926;28;8791;-68
2022/04/08 05:33:13;;;;;;;;;0.00;0.00;;;;;15.59;51.35;99930.38;5070010;28;9516;-68
2022/04/08 05:35:38;;;;;;;;;0.00;0.00;;;;;15.60;51.34;99918.94;5069556;28;8837;-68
2022/04/08 05:38:04;;;;;;;;;0.33;0.00;;;;;15.61;51.34;99918.06;5069400;28;8796;-68
2022/04/08 05:40:29;;;;;;;;;0.00;0.00;;;;;15.65;51.31;99921.50;5069425;28;8798;-68
2022/04/08 05:42:54;;;;;;;;;0.00;0.00;;;;;15.63;51.11;99916.28;5069223;28;8763;-68
2022/04/08 05:45:21;;;;;;;;;0.00;0.00;;;;;15.64;51.02;99904.84;5069923;28;8767;-67
2022/04/08 05:47:47;;;;;;;;;0.00;0.00;;;;;15.69;50.90;99904.78;5069066;28;8774;-68
2022/04/08 05:50:14;;;;;;;;;0.00;0.00;;;;;15.72;51.05;99903.00;5070111;28;9101;-67
2022/04/08 05:52:40;;;;;;;;;0.00;0.00;;;;;15.72;50.70;99899.47;5069565;28;9035;-67
2022/04/08 05:55:06;;;;;;;;;0.00;0.00;;;;;15.74;50.88;99902.97;5069030;28;9101;-67
2022/04/08 05:57:35;;;;;;;;;0.00;0.00;;;;;15.76;50.65;99904.69;5069698;28;9140;-68
2022/04/08 06:00:03;;;;;;;;;0.00;0.00;;;;;15.79;50.71;99901.13;5069514;28;8815;-68
2022/04/08 06:02:28;;;;;;;;;0.00;0.00;;;;;15.81;50.48;99902.88;5068695;28;9020;-68
2022/04/08 06:04:53;;;;;;;;;0.00;0.00;;;;;15.80;50.38;99908.13;5069915;28;9053;-69
2022/04/08 06:07:21;;;;;;;;;1.00;0.00;;;;;15.79;50.26;99906.38;5069856;28;8787;-68
2022/04/08 06:09:47;;;;;;;;;0.00;0.00;;;;;15.81;50.40;99908.13;5069018;28;8790;-68
2022/04/08 06:12:12;;;;;;;;;0.00;0.00;;;;;15.82;50.12;99909.84;5069792;28;9024;-68
2022/04/08 06:14:37;;;;;;;;;0.00;0.00;;;;;15.81;50.14;99907.25;5070143;28;8837;-67
2022/04/08 06:17:03;;;;;;;;;1.00;0.00;;;;;15.82;50.45;99915.09;5069064;28;8833;-68
2022/04/08 06:19:28;;;;;;;;;0.00;0.00;;;;;15.81;50.25;99912.53;5070089;28;8784;-69
2022/04/08 06:21:54;;;;;;;;;0.00;0.00;;;;;15.83;50.54;99913.34;5069736;28;8863;-68
2022/04/08 06:24:20;;;;;;;;;0.00;0.00;;;;;15.82;50.25;99909.84;5069254;28;8794;-68
2022/04/08 06:26:45;;;;;;;;;0.00;0.00;;;;;15.83;50.32;99905.47;5069139;28;9016;-68
2022/04/08 06:29:10;;;;;;;;;0.00;0.00;;;;;15.80;50.17;99911.66;5069900;28;8776;-68
2022/04/08 06:31:35;;;;;;;;;0.00;0.00;;;;;15.82;50.37;99906.38;5068387;28;8800;-69
2022/04/08 06:34:01;;;;;;;;;0.00;0.00;;;;;15.84;50.35;99913.34;5069055;28;8828;-68
2022/04/08 06:36:28;;;;;;;;;0.00;0.00;;;;;15.84;50.16;99909.84;5069297;28;8835;-68
2022/04/08 06:38:54;;;;;;;;;0.00;0.00;;;;;15.85;50.08;99914.22;5067933;28;8774;-68
2022/04/08 06:41:20;;;;;;;;;0.00;0.00;;;;;15.86;49.96;99915.94;5069425;28;9671;-68
2022/04/08 06:43:45;;;;;;;;;0.00;0.00;;;;;15.87;50.05;99912.41;5069123;28;8844;-68
2022/04/08 06:46:11;;;;;;;;;0.00;0.00;;;;;15.86;50.17;99902.78;5068609;28;8772;-69
2022/04/08 06:48:36;;;;;;;;;0.00;0.00;;;;;15.87;50.06;99915.06;5069173;28;8760;-68
2022/04/08 06:51:04;;;;;;;;;0.00;0.00;;;;;15.85;50.08;99909.81;5067811;28;9097;-69
2022/04/08 06:53:36;;;;;;;;;0.00;0.00;;;;;15.87;50.02;99917.69;5072369;28;8949;-68
2022/04/08 06:56:03;;;;;;;;;0.00;0.00;;;;;15.87;50.12;99904.53;5072603;28;9011;-68
2022/04/08 06:58:30;;;;;;;;;0.00;0.00;;;;;15.91;51.11;99917.63;5071777;28;9277;-68
2022/04/08 07:00:55;;;;;;;;;0.00;0.00;;;;;15.86;50.43;99914.19;5070476;28;9105;-68
2022/04/08 07:03:21;;;;;;;;;1.00;0.00;;;;;15.86;50.19;99915.94;5072116;28;9185;-68
2022/04/08 07:05:47;;;;;;;;;0.67;0.00;;;;;15.88;50.49;99904.50;5070589;28;8783;-68
2022/04/08 07:08:12;;;;;;;;;0.00;0.00;;;;;15.87;50.41;99908.03;5070860;28;8800;-68
2022/04/08 07:10:40;;;;;;;;;0.00;0.00;;;;;15.90;50.38;99913.25;5071789;28;8839;-68
2022/04/08 07:13:07;;;;;;;;;0.00;0.00;;;;;15.89;50.68;99913.28;5069696;28;8812;-68
2022/04/08 07:15:32;;;;;;;;;0.00;0.00;;;;;15.87;50.65;99913.28;5062145;28;9096;-68
2022/04/08 07:17:58;;;;;;;;;0.00;0.00;;;;;15.88;50.71;99915.03;5050387;28;9220;-68
2022/04/08 07:20:23;;;;;;;;;0.00;0.00;;;;;15.92;50.76;99913.22;5050966;28;8887;-68
2022/04/08 07:22:49;;;;;;;;;0.00;0.00;;;;;15.89;50.91;99911.53;5051124;28;8833;-68
2022/04/08 07:25:15;;;;;;;;;0.00;0.00;;;;;15.90;50.70;99907.97;5052600;28;8801;-67
2022/04/08 07:27:46;;;;;;;;;0.00;0.00;;;;;15.87;50.92;99907.16;5052645;28;9571;-68
2022/04/08 07:30:12;;;;;;;;;0.00;0.00;;;;;15.91;50.89;99906.22;5051416;28;9028;-67
2022/04/08 07:32:38;;;;;;;;;0.00;0.00;;;;;15.90;50.85;99907.97;5052151;28;9034;-68
2022/04/08 07:35:03;;;;;;;;;0.00;0.00;;;;;15.90;50.99;99909.72;5051116;28;9222;-68
2022/04/08 07:37:31;;;;;;;;;0.00;0.00;;;;;15.89;50.97;99901.00;5050167;28;8978;-68
2022/04/08 07:39:57;;;;;;;;;0.00;0.00;;;;;15.88;50.96;99909.78;5051415;28;8935;-68
2022/04/08 07:42:23;;;;;;;;;0.00;0.00;;;;;15.90;51.24;99891.31;5050624;28;9032;-67
2022/04/08 07:44:49;;;;;;;;;0.00;0.00;;;;;15.91;51.31;99899.19;5052160;28;9069;-67
2022/04/08 07:47:15;;;;;;;;;0.00;0.00;;;;;16.04;51.36;99899.88;5051149;28;8949;-69
2022/04/08 07:49:41;;;;;;;;;0.00;0.00;;;;;16.17;57.72;99900.53;5052265;28;8796;-71
2022/04/08 07:52:07;;;;;;;;;0.00;0.00;;;;;16.29;58.07;99902.97;5051776;28;9072;-67
2022/04/08 07:54:32;;;;;;;;;1.67;0.00;;;;;16.63;63.04;99892.75;5051020;28;9192;-68
2022/04/08 07:56:57;;;;;;;;;1.33;0.33;;;;;16.61;63.88;99891.94;5051097;28;8828;-69
2022/04/08 07:59:22;;;;;;;;;1.00;0.00;;;;;16.55;61.00;99895.50;5051928;28;8788;-69
2022/04/08 08:01:48;;;;;;;;;5.00;2.00;;;;;16.63;64.87;99890.13;5050241;28;8834;-68
2022/04/08 08:04:13;;;;;;;;;0.67;0.67;;;;;16.64;61.58;99890.09;5050830;28;8840;-70
2022/04/08 08:06:39;;;;;;;;;1.33;1.00;;;;;16.78;68.92;99889.84;5051345;28;9545;-70
2022/04/08 08:09:04;;;;;;;;;2.33;1.00;;;;;16.85;68.96;99891.44;5050460;28;8807;-69
2022/04/08 08:11:29;;;;;;;;;5.67;4.00;;;;;16.82;69.99;99895.03;5051924;28;8784;-69
2022/04/08 08:13:55;;;;;;;;;1.00;1.00;;;;;16.89;70.26;99888.72;5051617;28;8804;-69
2022/04/08 08:16:21;;;;;;;;;1.33;1.33;;;;;16.96;73.00;99886.84;5065973;28;8802;-69
2022/04/08 08:18:48;;;;;;;;;2.00;1.00;;;;;16.95;73.39;99889.50;5071386;28;9985;-68
2022/04/08 08:21:13;;;;;;;;;2.33;2.00;;;;;16.86;72.37;99891.44;5071850;28;8802;-69
2022/04/08 08:23:38;;;;;;;;;2.00;1.00;;;;;16.84;72.77;99892.34;5070983;28;9017;-70
2022/04/08 08:26:03;;;;;;;;;1.00;1.00;;;;;16.88;70.73;99887.00;5071231;28;9612;-70
2022/04/08 08:28:29;;;;;;;;;4.00;1.67;;;;;16.64;67.48;99884.84;5071446;28;8766;-70
2022/04/08 08:30:55;;;;;;;;;2.00;2.00;;;;;16.53;62.76;99884.13;5070458;28;8812;-70
2022/04/08 08:33:20;;;;;;;;;0.67;0.33;;;;;16.50;56.46;99878.88;5071865;28;8790;-72
2022/04/08 08:35:46;;;;;;;;;0.00;0.00;;;;;16.49;53.12;99877.16;5071617;28;8770;-70
2022/04/08 08:38:11;;;;;;;;;1.00;1.00;;;;;16.47;51.15;99870.16;5070889;28;9818;-71
2022/04/08 08:40:36;;;;;;;;;0.33;0.33;;;;;16.55;49.02;99873.53;5071373;28;8774;-71
2022/04/08 08:43:02;;;;;;;;;2.00;0.00;;;;;16.43;55.05;99874.63;5070789;28;8767;-69
2022/04/08 08:45:32;;;;;;;;;0.33;0.33;;;;;16.29;48.20;99879.28;5070718;28;8786;-69
2022/04/08 08:48:00;;;;;;;;;1.00;1.00;;;;;16.23;48.76;99879.38;5070469;28;9003;-69
2022/04/08 08:50:27;;;;;;;;;1.00;1.00;;;;;16.16;46.60;99881.22;5071217;28;9096;-70
2022/04/08 08:52:52;;;;;;;;;3.33;1.67;;;;;16.16;48.18;99875.13;5070333;28;9020;-70
2022/04/08 08:55:18;;;;;;;;;3.00;1.00;;;;;16.16;48.25;99880.38;5059888;28;9162;-70
2022/04/08 08:57:45;;;;;;;;;0.33;0.33;;;;;16.05;51.18;99877.03;5049343;28;8897;-69
2022/04/08 09:00:13;;;;;;;;;0.67;0.67;;;;;16.09;49.86;99874.31;5049799;28;9015;-69
2022/04/08 09:02:40;;;;;;;;;1.00;1.00;;;;;16.15;47.14;99870.75;5049889;28;8985;-69
2022/04/08 09:05:25;;;;;;;;;0.33;0.33;;;;;16.18;47.72;99868.06;5047832;28;9872;-70
2022/04/08 09:07:58;;;;;;;;;1.00;1.00;;;;;16.13;48.90;99861.97;5052512;28;9054;-70
2022/04/08 09:10:36;;;;;;;;;1.00;0.67;;;;;16.10;49.79;99862.91;5050146;28;9301;-70
2022/04/08 09:13:05;;;;;;;;;2.00;0.67;;;;;15.98;47.86;99867.50;5051838;28;9301;-71
2022/04/08 09:15:31;;;;;;;;;1.00;1.00;;;;;16.05;48.12;99858.59;5047660;28;9314;-70
2022/04/08 09:18:32;;;;;;;;;0.33;0.33;;;;;16.06;47.82;99869.13;5049657;28;9218;-70
2022/04/08 09:20:58;;;;;;;;;0.00;0.00;;;;;16.11;46.01;99875.19;5021846;28;9186;-70
2022/04/08 09:23:24;;;;;;;;;0.00;0.00;;;;;16.20;45.64;99872.38;5049142;28;9205;-70
2022/04/08 09:25:59;;;;;;;;;1.00;0.00;;;;;16.25;45.73;99869.69;5048033;28;9142;-70
2022/04/08 09:28:24;;;;;;;;;2.00;0.00;;;;;16.24;45.34;99860.91;5050636;28;8878;-70
2022/04/08 09:30:58;;;;;;;;;1.67;0.33;;;;;16.26;45.06;99853.00;5049950;28;9112;-69
2022/04/08 09:33:23;;;;;;;;;2.00;0.00;;;;;16.29;45.75;99856.44;5049283;28;8809;-70
2022/04/08 09:35:52;;;;;;;;;1.00;1.00;;;;;16.25;45.99;99857.38;5048707;28;9884;-70
2022/04/08 09:38:25;;;;;;;;;1.00;1.00;;;;;16.23;44.66;99867.06;5049684;28;8949;-69
2022/04/08 09:40:50;;;;;;;;;2.33;2.00;;;;;16.39;45.92;99863.28;5049464;28;8898;-71
2022/04/08 09:43:17;;;;;;;;;1.00;0.33;;;;;16.33;45.02;99850.22;5050094;28;10070;-71
2022/04/08 09:45:44;;;;;;;;;3.00;1.00;;;;;16.32;45.95;99852.88;5048637;28;8844;-69
2022/04/08 09:48:10;;;;;;;;;1.00;1.00;;;;;16.43;44.73;99850.91;5049321;28;9049;-70
2022/04/08 09:50:37;;;;;;;;;3.33;1.33;;;;;16.57;45.33;99848.09;5049993;28;9279;-69
2022/04/08 09:53:03;;;;;;;;;5.00;4.75;;;;;16.63;45.50;99843.56;5049343;28;8809;-69
2022/04/08 09:55:30;;;;;;;;;8.75;7.25;;;;;16.72;45.12;99848.63;5047992;28;9570;-69
2022/04/08 09:57:58;;;;;;;;;16.75;15.00;;;;;16.79;45.44;99850.28;5048970;28;9747;-69
2022/04/08 10:00:25;;;;;;;;;14.00;11.50;;;;;16.83;45.51;99853.72;5049507;28;9722;-69
2022/04/08 10:02:55;;;;;;;;;12.75;11.50;;;;;16.85;45.83;99850.16;5048522;28;9649;-69
2022/04/08 10:05:22;;;;;;;;;14.75;13.25;;;;;16.91;46.02;99864.94;5048375;28;9961;-69
2022/04/08 10:07:49;;;;;;;;;13.50;12.75;;;;;16.96;46.02;99849.06;5049057;28;9805;-69
2022/04/08 10:10:40;;;;;;;;;15.25;14.25;;;;;16.93;46.27;99855.25;5048903;28;9826;-69
2022/04/08 10:13:21;;;;;;;;;18.75;17.50;;;;;17.03;46.27;99861.22;5050046;28;9846;-69
2022/04/08 10:16:18;;;;;;;;;20.75;18.00;;;;;17.04;46.43;99865.59;5059742;28;9831;-69
2022/04/08 10:18:46;;;;;;;;;18.50;16.50;;;;;17.05;46.87;99865.56;5069788;28;9876;-70
2022/04/08 10:21:11;;;;;;;;;20.50;18.50;;;;;17.04;46.90;99861.19;5069978;28;10688;-69
2022/04/08 10:23:47;;;;;;;;;16.00;14.25;;;;;17.03;46.85;99869.13;5069538;28;9766;-68
2022/04/08 10:26:19;;;;;;;;;19.00;19.00;;;;;17.01;47.52;99865.66;5071816;28;8857;-69
2022/04/08 10:28:44;;;;;;;;;18.25;17.50;;;;;16.98;47.47;99866.59;5074044;28;9937;-69
2022/04/08 10:31:18;;;;;;;;;17.50;15.75;;;;;16.97;47.82;99863.97;5073438;28;10038;-70
2022/04/08 10:34:01;;;;;;;;;16.50;16.00;;;;;16.96;47.77;99863.09;5073807;28;8771;-69
2022/04/08 10:36:34;;;;;;;;;16.50;12.75;;;;;16.96;47.58;99857.84;5074428;28;10063;-69
2022/04/08 10:39:13;;;;;;;;;20.25;18.75;;;;;16.94;48.24;99848.22;5073626;28;9848;-70
2022/04/08 10:41:59;;;;;;;;;16.25;15.00;;;;;16.94;48.08;99854.38;5073714;28;9868;-69
2022/04/08 10:44:33;;;;;;;;;19.25;17.75;;;;;16.90;48.45;99858.84;5072677;28;10098;-69
2022/04/08 10:47:10;;;;;;;;;14.00;14.00;;;;;16.96;48.22;99872.78;5073172;28;10049;-69
2022/04/08 10:49:48;;;;;;;;;18.25;15.00;;;;;16.92;48.59;99871.97;5074026;28;10027;-69
2022/04/08 10:52:18;;;;;;;;;14.00;11.75;;;;;16.92;48.98;99870.22;5074265;28;10006;-71
2022/04/08 10:54:44;;;;;;;;;14.50;14.25;;;;;16.95;48.42;99871.03;5073366;28;9926;-71
2022/04/08 10:57:09;;;;;;;;;19.25;17.50;;;;;16.91;48.84;99860.56;5072745;28;10648;-72
2022/04/08 10:59:35;;;;;;;;;18.25;14.50;;;;;16.90;48.91;99850.94;5073464;28;8861;-71
2022/04/08 11:02:05;;;;;;;;;18.00;16.00;;;;;16.88;48.88;99850.06;5073077;28;8780;-71
2022/04/08 11:04:31;;;;;;;;;14.00;14.00;;;;;16.85;48.91;99842.25;5073004;28;8768;-70
2022/04/08 11:07:02;;;;;;;;;13.00;10.50;;;;;16.86;49.27;99837.84;5063838;28;9899;-72
2022/04/08 11:09:28;;;;;;;;;15.75;15.75;;;;;16.86;49.38;99840.47;5053059;28;9938;-71
2022/04/08 11:11:55;;;;;;;;;12.25;12.25;;;;;16.85;49.24;99844.88;5052255;28;9948;-72
2022/04/08 11:14:20;;;;;;;;;16.00;14.25;;;;;16.88;49.17;99847.44;5072407;28;8923;-72
2022/04/08 11:16:47;;;;;;;;;16.75;15.75;;;;;16.89;49.23;99851.81;5073114;28;10081;-71
2022/04/08 11:19:13;;;;;;;;;17.25;12.25;;;;;16.89;49.23;99848.31;5072320;28;8802;-71
2022/04/08 11:21:39;;;;;;;;;11.50;11.50;;;;;16.86;49.46;99843.97;5073065;28;9955;-71
2022/04/08 11:24:19;;;;;;;;;11.75;11.75;;;;;16.87;49.50;99844.84;5072508;28;8798;-71
2022/04/08 11:26:49;;;;;;;;;13.25;12.50;;;;;16.87;49.59;99835.16;5071833;28;9770;-71
2022/04/08 11:29:17;;;;;;;;;15.75;12.00;;;;;16.85;49.59;99836.97;5072668;28;9845;-72
2022/04/08 11:31:45;;;;;;;;;12.00;12.00;;;;;16.87;49.52;99829.03;5072688;28;9866;-72
2022/04/08 11:34:10;;;;;;;;;13.00;13.00;;;;;16.86;49.65;99827.28;5071812;28;9816;-72
2022/04/08 11:36:37;;;;;;;;;14.25;11.75;;;;;16.87;49.68;99829.03;5071375;28;9843;-72
2022/04/08 11:39:06;;;;;;;;;13.00;13.00;;;;;16.85;49.57;99834.31;5071354;28;8779;-73